Time;durP1;ratioP1;P1;durP2;ratioP2;P2;SDS_P1;SDS_P2;PMS_P1;PMS_P2;Temp;Humidity;BMP_temperature;BMP_pressure;BME280_temperature;BME280_humidity;BME280_pressure;Samples;Min_cycle;Max_cycle;Signal;HPM_P1;HPM_P2
2020/12/29 00:02:24;;;;;;;3.57;1.30;;;2.20;99.90;;;;;;6210329;23;20012;-92
2020/12/29 00:04:50;;;;;;;3.43;0.80;;;2.20;99.90;;;;;;6210062;23;20013;-93
2020/12/29 00:07:16;;;;;;;1.87;0.80;;;2.20;99.90;;;;;;6210416;23;20019;-94
2020/12/29 00:09:42;;;;;;;1.93;0.60;;;2.30;99.90;;;;;;6209530;23;20057;-94
2020/12/29 00:12:08;;;;;;;2.00;0.63;;;2.40;99.90;;;;;;6210153;23;20000;-93
2020/12/29 00:14:34;;;;;;;2.73;0.60;;;2.40;99.90;;;;;;6209716;23;20004;-94
2020/12/29 00:17:00;;;;;;;2.17;0.47;;;2.30;99.90;;;;;;6210250;23;20052;-95
2020/12/29 00:19:27;;;;;;;4.17;0.60;;;2.40;99.90;;;;;;6209851;23;20005;-95
2020/12/29 00:21:53;;;;;;;2.70;0.50;;;2.30;99.90;;;;;;6210208;23;19997;-93
2020/12/29 00:24:19;;;;;;;1.23;0.40;;;2.30;99.90;;;;;;6209663;23;19997;-93
2020/12/29 00:26:44;;;;;;;1.50;0.40;;;2.30;99.90;;;;;;6204900;23;20318;-94
2020/12/29 00:29:10;;;;;;;1.40;0.40;;;2.30;99.90;;;;;;6209015;23;20008;-93
2020/12/29 00:31:36;;;;;;;1.17;0.40;;;2.40;99.90;;;;;;6209888;23;20061;-93
2020/12/29 00:34:02;;;;;;;0.80;0.30;;;2.30;99.90;;;;;;6210037;23;19997;-93
2020/12/29 00:36:29;;;;;;;1.37;0.30;;;2.30;99.90;;;;;;6209440;23;19997;-93
2020/12/29 00:38:54;;;;;;;1.77;0.50;;;2.30;99.90;;;;;;6209005;23;20012;-92
2020/12/29 00:41:21;;;;;;;0.97;0.37;;;2.30;99.90;;;;;;6209552;23;20072;-93
2020/12/29 00:43:47;;;;;;;1.20;0.40;;;2.30;99.90;;;;;;6209064;23;20001;-93
2020/12/29 00:46:20;;;;;;;0.83;0.30;;;2.30;99.90;;;;;;6209759;23;19997;-93
2020/12/29 00:48:47;;;;;;;1.97;0.40;;;2.30;99.90;;;;;;6208763;23;19997;-94
2020/12/29 00:51:16;;;;;;;1.00;0.30;;;2.30;99.90;;;;;;6209334;23;20001;-93
2020/12/29 00:53:41;;;;;;;1.50;0.30;;;2.40;99.90;;;;;;6209592;23;20072;-93
2020/12/29 00:56:08;;;;;;;0.50;0.20;;;2.40;99.90;;;;;;6209751;23;20016;-94
2020/12/29 00:58:34;;;;;;;1.10;0.40;;;2.50;99.90;;;;;;6208296;23;19998;-94
2020/12/29 01:01:00;;;;;;;1.03;0.20;;;2.50;99.90;;;;;;6209732;23;19997;-94
2020/12/29 01:03:26;;;;;;;0.80;0.30;;;2.50;99.90;;;;;;6209585;23;20013;-93
2020/12/29 01:05:53;;;;;;;0.70;0.20;;;2.60;99.90;;;;;;6209069;23;20008;-94
2020/12/29 01:08:19;;;;;;;0.87;0.30;;;2.70;99.90;;;;;;6208833;23;19993;-93
2020/12/29 01:10:45;;;;;;;1.60;0.20;;;2.70;99.90;;;;;;6208941;23;20005;-94
2020/12/29 01:13:12;;;;;;;0.57;0.20;;;2.80;99.90;;;;;;6209288;23;20041;-93
2020/12/29 01:15:38;;;;;;;0.23;0.10;;;2.80;99.90;;;;;;6209124;23;20004;-94
2020/12/29 01:18:04;;;;;;;1.33;0.20;;;2.70;99.90;;;;;;6208870;23;20008;-93
2020/12/29 01:20:30;;;;;;;1.27;0.20;;;2.70;99.90;;;;;;6209407;23;20016;-93
2020/12/29 01:22:56;;;;;;;0.83;0.10;;;2.70;99.90;;;;;;6209127;23;20005;-92
2020/12/29 01:25:23;;;;;;;0.60;0.20;;;2.70;99.90;;;;;;6209033;23;20001;-94
2020/12/29 05:18:10;;;;;;;0.80;0.10;;;2.70;99.90;;;;;;6205128;23;20021;-83
2020/12/29 05:20:39;;;;;;;1.00;0.30;;;2.80;99.90;;;;;;6163894;23;20016;-84
2020/12/29 05:23:05;;;;;;;1.03;0.13;;;2.70;99.90;;;;;;6160932;23;20016;-85
2020/12/29 05:25:30;;;;;;;1.57;0.20;;;2.80;99.90;;;;;;6160671;23;20092;-83
2020/12/29 05:27:57;;;;;;;1.40;0.10;;;2.80;99.90;;;;;;6186873;23;20424;-86
2020/12/29 05:30:22;;;;;;;2.17;0.37;;;2.80;99.90;;;;;;6185144;23;20011;-86
2020/12/29 05:32:48;;;;;;;4.10;0.73;;;2.80;99.90;;;;;;6184639;23;20024;-86
2020/12/29 05:35:14;;;;;;;1.30;0.17;;;2.80;99.90;;;;;;6185050;23;20009;-87
2020/12/29 05:37:41;;;;;;;0.50;0.20;;;2.80;99.90;;;;;;6185972;23;20004;-87
2020/12/29 05:40:44;;;;;;;3.47;0.20;;;2.80;99.90;;;;;;6161050;23;20001;-86
2020/12/29 05:43:09;;;;;;;1.10;0.10;;;2.70;99.90;;;;;;6042823;23;20007;-84
2020/12/29 05:45:35;;;;;;;0.40;0.20;;;2.70;99.90;;;;;;6138062;23;20454;-86
2020/12/29 05:48:01;;;;;;;0.60;0.17;;;2.70;99.90;;;;;;6184173;23;20009;-85
2020/12/29 05:50:28;;;;;;;1.47;0.10;;;2.60;99.90;;;;;;6160093;23;20015;-86
2020/12/29 05:53:07;;;;;;;1.80;0.20;;;2.50;99.90;;;;;;6160969;23;20005;-86
2020/12/29 05:55:33;;;;;;;0.10;0.10;;;2.50;99.90;;;;;;6186013;23;20005;-87
2020/12/29 05:58:09;;;;;;;1.03;0.13;;;2.40;99.90;;;;;;6159528;23;20005;-86
2020/12/29 06:00:42;;;;;;;0.57;0.20;;;2.40;99.90;;;;;;6159350;23;20281;-87
2020/12/29 06:03:09;;;;;;;1.83;0.30;;;2.40;99.90;;;;;;6185319;23;20025;-85
2020/12/29 06:05:36;;;;;;;0.67;0.10;;;2.30;99.90;;;;;;6159356;23;20010;-86
2020/12/29 06:08:04;;;;;;;0.80;0.20;;;2.30;99.90;;;;;;6159661;23;20009;-85
2020/12/29 06:10:31;;;;;;;1.77;0.27;;;2.30;99.90;;;;;;6158993;23;20009;-85
2020/12/29 06:12:59;;;;;;;0.67;0.10;;;2.30;99.90;;;;;;6159304;23;20428;-85
2020/12/29 06:15:28;;;;;;;0.97;0.23;;;2.30;99.90;;;;;;6161156;23;20068;-87
2020/12/29 06:18:04;;;;;;;0.47;0.10;;;2.20;99.90;;;;;;6161323;23;20012;-85
2020/12/29 06:20:36;;;;;;;2.17;0.30;;;2.20;99.90;;;;;;6161613;23;20095;-85
2020/12/29 06:23:06;;;;;;;3.20;0.70;;;2.20;99.90;;;;;;6161210;23;20037;-86
2020/12/29 06:25:36;;;;;;;1.93;0.30;;;2.20;99.90;;;;;;6162178;23;20009;-86
2020/12/29 06:28:06;;;;;;;0.87;0.20;;;2.20;99.90;;;;;;6161763;23;20083;-85
2020/12/29 06:30:33;;;;;;;2.03;0.40;;;2.30;99.90;;;;;;6186047;23;20037;-87
2020/12/29 06:33:03;;;;;;;2.50;0.20;;;2.30;99.90;;;;;;6161635;23;20080;-88
2020/12/29 06:35:29;;;;;;;1.30;0.23;;;2.30;99.90;;;;;;6162089;23;20056;-86
2020/12/29 06:38:06;;;;;;;3.60;0.30;;;2.30;99.90;;;;;;6187027;23;20009;-85
2020/12/29 06:40:32;;;;;;;1.77;0.30;;;2.40;99.90;;;;;;6163673;23;20005;-88
2020/12/29 06:42:58;;;;;;;0.87;0.20;;;2.30;99.90;;;;;;6188307;23;20087;-89
2020/12/29 06:45:24;;;;;;;2.77;0.50;;;2.30;99.90;;;;;;6163238;23;20035;-87
2020/12/29 06:47:51;;;;;;;1.07;0.30;;;2.30;99.90;;;;;;6189076;23;20100;-87
2020/12/29 06:50:23;;;;;;;5.13;0.30;;;2.30;99.90;;;;;;6188203;23;20039;-86
2020/12/29 06:53:00;;;;;;;1.42;0.30;;;2.20;99.90;;;;;;6169018;23;20190;-91
2020/12/29 06:55:46;;;;;;;4.30;0.30;;;2.30;99.90;;;;;;6178766;23;20179;-88
2020/12/29 06:58:33;;;;;;;1.43;0.40;;;2.30;99.90;;;;;;6165807;23;20310;-88
2020/12/29 07:01:24;;;;;;;1.53;0.50;;;2.30;99.90;;;;;;6173592;23;20047;-89
2020/12/29 07:04:05;;;;;;;1.97;0.30;;;2.40;99.90;;;;;;6170842;23;20055;-88
2020/12/29 07:06:35;;;;;;;1.97;0.30;;;2.40;99.90;;;;;;6167582;23;20004;-88
2020/12/29 07:09:15;;;;;;;3.27;0.60;;;2.40;99.90;;;;;;6139618;23;20348;-87
2020/12/29 07:12:00;;;;;;;3.43;0.30;;;2.40;99.90;;;;;;6167111;23;20001;-88
2020/12/29 07:14:32;;;;;;;4.63;1.03;;;2.50;99.90;;;;;;6162926;23;20005;-88
2020/12/29 07:16:59;;;;;;;1.90;0.55;;;2.50;99.90;;;;;;6163666;23;20120;-87
2020/12/29 07:19:27;;;;;;;3.97;0.40;;;2.50;99.90;;;;;;6164048;23;20428;-88
2020/12/29 07:21:55;;;;;;;3.00;0.50;;;2.50;99.90;;;;;;6162705;23;20005;-87
2020/12/29 07:24:21;;;;;;;3.03;0.43;;;2.50;99.90;;;;;;6162515;23;20092;-88
2020/12/29 07:26:55;;;;;;;2.80;0.30;;;2.50;99.90;;;;;;6162531;23;20372;-88
2020/12/29 07:29:21;;;;;;;4.23;0.80;;;2.50;99.90;;;;;;6162546;23;20001;-88
2020/12/29 07:31:47;;;;;;;4.03;0.63;;;2.50;99.90;;;;;;6187814;23;20088;-88
2020/12/29 07:34:14;;;;;;;1.83;0.33;;;2.50;99.90;;;;;;6188033;23;20047;-89
2020/12/29 07:36:47;;;;;;;3.07;0.40;;;2.50;99.90;;;;;;6189550;23;20023;-88
2020/12/29 07:39:14;;;;;;;2.07;0.50;;;2.50;99.90;;;;;;6162398;23;20012;-88
2020/12/29 07:41:41;;;;;;;2.73;0.50;;;2.50;99.90;;;;;;6162753;23;20040;-90
2020/12/29 07:44:17;;;;;;;3.13;0.40;;;2.60;99.90;;;;;;6161705;23;20012;-88
2020/12/29 07:46:43;;;;;;;3.27;0.50;;;2.50;99.90;;;;;;6186317;23;20005;-88
2020/12/29 07:49:08;;;;;;;1.33;0.40;;;2.60;99.90;;;;;;6185647;23;20012;-88
2020/12/29 07:51:54;;;;;;;5.07;0.50;;;2.50;99.90;;;;;;6185479;23;20001;-86
2020/12/29 07:54:23;;;;;;;2.40;0.50;;;2.60;99.90;;;;;;6160255;23;20001;-92
2020/12/29 07:56:50;;;;;;;6.67;1.03;;;2.60;99.90;;;;;;6167736;23;20050;-92
2020/12/29 07:59:27;;;;;;;2.73;0.50;;;2.60;99.90;;;;;;6169534;23;20005;-92
2020/12/29 08:01:55;;;;;;;3.40;0.70;;;2.60;99.90;;;;;;6175424;23;20060;-91
2020/12/29 08:04:31;;;;;;;3.07;0.77;;;2.70;99.90;;;;;;6181377;23;20005;-91
2020/12/29 08:06:59;;;;;;;5.07;2.00;;;2.70;99.90;;;;;;6182806;23;20024;-91
2020/12/29 08:09:27;;;;;;;2.00;0.30;;;2.70;99.90;;;;;;6181095;23;20005;-90
2020/12/29 08:12:02;;;;;;;1.63;0.23;;;2.80;99.90;;;;;;6180603;23;19998;-91
2020/12/29 08:14:28;;;;;;;2.63;0.40;;;2.70;99.90;;;;;;6179348;23;20008;-91
2020/12/29 08:17:03;;;;;;;1.73;0.30;;;2.80;99.90;;;;;;6203412;23;20012;-91
2020/12/29 08:19:29;;;;;;;2.20;0.40;;;2.90;99.90;;;;;;6180222;23;20012;-91
2020/12/29 08:21:57;;;;;;;4.03;0.53;;;2.90;99.90;;;;;;6156685;23;20087;-91
2020/12/29 08:24:50;;;;;;;1.93;0.40;;;2.90;99.90;;;;;;6182318;23;20006;-91
2020/12/29 08:27:17;;;;;;;2.40;0.30;;;3.00;99.90;;;;;;6180676;23;20009;-91
2020/12/29 08:29:44;;;;;;;4.57;0.47;;;3.00;99.90;;;;;;6206429;23;20016;-93
2020/12/29 08:32:17;;;;;;;2.57;0.47;;;3.10;99.90;;;;;;6181413;23;20001;-92
2020/12/29 08:34:47;;;;;;;4.20;0.40;;;3.10;99.90;;;;;;6181435;23;20101;-91
2020/12/29 08:37:18;;;;;;;4.63;0.87;;;3.10;99.90;;;;;;6182474;23;20012;-91
2020/12/29 08:40:06;;;;;;;1.92;0.22;;;3.10;99.90;;;;;;6208157;23;20001;-92
2020/12/29 08:42:36;;;;;;;2.00;0.40;;;3.10;99.90;;;;;;6181423;23;20005;-92
2020/12/29 08:45:18;;;;;;;5.30;1.13;;;3.10;99.90;;;;;;6183863;23;20008;-92
2020/12/29 08:48:17;;;;;;;2.17;0.40;;;3.10;99.90;;;;;;6149379;23;19997;-91
2020/12/29 08:50:43;;;;;;;5.20;0.40;;;3.10;99.90;;;;;;6167376;23;20012;-92
2020/12/29 08:53:09;;;;;;;2.30;0.40;;;3.10;99.90;;;;;;6204948;23;20016;-92
2020/12/29 08:55:39;;;;;;;0.93;0.40;;;3.20;99.90;;;;;;6205371;23;20026;-91
2020/12/29 08:58:06;;;;;;;6.57;0.60;;;3.10;99.90;;;;;;6182223;23;19989;-92
2020/12/29 09:03:55;;;;;;;4.00;0.40;;;3.20;99.90;;;;;;6116269;23;20014;-91
2020/12/29 09:06:22;;;;;;;3.97;0.47;;;3.10;99.90;;;;;;6160054;23;20001;-92
2020/12/29 09:08:47;;;;;;;5.63;0.77;;;3.00;99.90;;;;;;6177466;23;20029;-92
2020/12/29 09:11:14;;;;;;;3.00;0.50;;;3.00;99.90;;;;;;6203215;23;20199;-93
2020/12/29 09:14:05;;;;;;;3.03;0.60;;;2.90;99.90;;;;;;6177461;23;20005;-91
2020/12/29 09:16:31;;;;;;;2.70;0.37;;;2.90;99.90;;;;;;6199993;23;20068;-91
2020/12/29 09:18:58;;;;;;;5.63;0.60;;;2.90;99.90;;;;;;6200514;23;20040;-92
2020/12/29 09:21:25;;;;;;;2.17;0.50;;;2.80;99.90;;;;;;6149909;23;20020;-91
2020/12/29 09:23:57;;;;;;;4.77;0.70;;;2.70;99.90;;;;;;6173523;23;20016;-92
2020/12/29 09:26:23;;;;;;;3.25;0.30;;;2.60;99.90;;;;;;6172284;23;20009;-92
2020/12/29 09:28:49;;;;;;;1.47;0.40;;;2.60;99.90;;;;;;6198858;23;20375;-92
2020/12/29 09:31:14;;;;;;;2.20;0.30;;;2.50;99.90;;;;;;6197019;23;20008;-91
2020/12/29 09:33:47;;;;;;;2.57;0.40;;;2.30;99.90;;;;;;6199818;23;20032;-91
2020/12/29 09:36:26;;;;;;;1.30;0.40;;;2.30;99.90;;;;;;6177211;23;20012;-91
2020/12/29 09:38:57;;;;;;;3.83;0.30;;;2.30;99.90;;;;;;6179527;23;20001;-92
2020/12/29 09:41:26;;;;;;;2.23;0.40;;;2.30;99.90;;;;;;6171466;23;20001;-92
2020/12/29 09:44:06;;;;;;;1.70;0.40;;;2.20;99.90;;;;;;6171871;23;20009;-92
2020/12/29 09:46:39;;;;;;;3.73;0.47;;;2.30;99.90;;;;;;6181207;23;20009;-92
2020/12/29 09:49:35;;;;;;;1.90;0.30;;;2.30;99.90;;;;;;6195073;23;20009;-91
2020/12/29 09:52:03;;;;;;;2.50;0.37;;;2.40;99.90;;;;;;6173098;23;20001;-92
2020/12/29 09:54:32;;;;;;;1.77;0.50;;;2.50;99.90;;;;;;6193652;23;20340;-92
2020/12/29 09:57:04;;;;;;;3.63;0.30;;;2.60;99.90;;;;;;6200531;23;20031;-92
2020/12/29 09:59:39;;;;;;;4.38;0.60;;;2.50;99.90;;;;;;6173058;23;20016;-92
2020/12/29 10:02:14;;;;;;;3.97;0.50;;;2.60;99.90;;;;;;6172367;23;20005;-93
2020/12/29 10:05:06;;;;;;;5.17;0.80;;;2.70;99.90;;;;;;6196970;23;20001;-92
2020/12/29 10:11:15;;;;;;;2.20;0.20;;;2.80;99.90;;;;;;6202039;23;20048;-93
2020/12/29 10:13:41;;;;;;;0.87;0.33;;;2.90;99.90;;;;;;6195831;23;20001;-92
2020/12/29 10:16:11;;;;;;;1.83;0.40;;;2.90;99.90;;;;;;6195562;23;20059;-91
2020/12/29 10:18:39;;;;;;;4.23;0.50;;;3.00;99.90;;;;;;6179197;23;20016;-91
2020/12/29 10:21:26;;;;;;;1.77;0.40;;;3.10;99.90;;;;;;6181096;23;20444;-92
2020/12/29 10:23:54;;;;;;;2.27;0.30;;;3.10;99.90;;;;;;6182137;23;20024;-91
2020/12/29 10:26:20;;;;;;;0.80;0.20;;;3.20;99.90;;;;;;6181857;23;20005;-91
2020/12/29 10:28:46;;;;;;;0.70;0.20;;;3.10;99.90;;;;;;6206230;23;20067;-91
2020/12/29 10:31:12;;;;;;;1.33;0.20;;;3.20;99.90;;;;;;6207259;23;20036;-91
2020/12/29 10:34:02;;;;;;;1.40;0.40;;;3.20;99.90;;;;;;6200364;23;20005;-91
2020/12/29 10:36:58;;;;;;;1.73;0.27;;;3.30;99.90;;;;;;6174720;23;20001;-91
2020/12/29 10:39:26;;;;;;;0.40;0.17;;;3.30;99.90;;;;;;6196841;23;20004;-92
2020/12/29 10:41:56;;;;;;;0.63;0.30;;;3.30;99.90;;;;;;6195640;23;20008;-92
2020/12/29 10:44:22;;;;;;;0.67;0.20;;;3.40;99.90;;;;;;6169974;23;20073;-91
2020/12/29 10:46:50;;;;;;;0.90;0.20;;;3.40;99.90;;;;;;6195850;23;20005;-92
2020/12/29 11:02:14;;;;;;;0.30;0.10;;;3.70;99.90;;;;;;6181603;23;20040;-88
2020/12/29 11:05:10;;;;;;;0.40;0.10;;;3.70;99.90;;;;;;6183401;23;20001;-88
2020/12/29 11:07:42;;;;;;;0.73;0.10;;;3.80;99.90;;;;;;6185975;23;20075;-91
2020/12/29 11:10:50;;;;;;;0.68;0.17;;;3.90;99.90;;;;;;6156647;23;20013;-90
2020/12/29 11:16:50;;;;;;;1.05;0.10;;;4.00;99.90;;;;;;6179910;23;20013;-88
2020/12/29 11:19:33;;;;;;;0.70;0.20;;;4.00;99.90;;;;;;6185279;23;20340;-88
2020/12/29 11:22:41;;;;;;;1.07;0.20;;;4.10;99.90;;;;;;6159360;23;20014;-87
2020/12/29 11:25:07;;;;;;;0.30;0.10;;;4.20;99.90;;;;;;6117017;23;20009;-89
2020/12/29 11:27:40;;;;;;;1.03;0.27;;;4.30;99.90;;;;;;6182810;23;20012;-89
2020/12/29 11:30:06;;;;;;;0.33;0.10;;;4.40;99.90;;;;;;6157907;23;20559;-88
2020/12/29 11:32:32;;;;;;;1.17;0.10;;;4.40;99.90;;;;;;6183422;23;20040;-89
2020/12/29 11:34:57;;;;;;;3.30;0.33;;;4.30;99.90;;;;;;6184844;23;20032;-91
2020/12/29 11:37:23;;;;;;;2.07;0.20;;;4.40;99.90;;;;;;6186889;23;20108;-90
2020/12/29 11:39:53;;;;;;;1.53;0.10;;;4.20;99.90;;;;;;6195685;22;20001;-89
2020/12/29 11:42:19;;;;;;;2.77;0.40;;;4.20;99.90;;;;;;6188419;23;20001;-90
2020/12/29 11:44:50;;;;;;;0.60;0.10;;;4.20;99.90;;;;;;6187280;23;20008;-89
2020/12/29 11:47:15;;;;;;;1.90;0.10;;;4.10;99.90;;;;;;6161659;23;20001;-88
2020/12/29 11:53:07;;;;;;;1.10;0.13;;;4.10;99.90;;;;;;6188259;23;20008;-90
2020/12/29 11:56:11;;;;;;;1.23;0.20;;;4.10;99.90;;;;;;6161331;23;20001;-91
2020/12/29 11:58:38;;;;;;;0.30;0.13;;;4.10;99.90;;;;;;6160006;23;20436;-91
2020/12/29 12:01:04;;;;;;;1.47;0.23;;;4.10;99.90;;;;;;6183186;23;20407;-91
2020/12/29 12:03:29;;;;;;;0.87;0.27;;;4.10;99.90;;;;;;6189834;23;20056;-90
2020/12/29 12:05:55;;;;;;;0.50;0.17;;;4.10;99.90;;;;;;6184009;23;20416;-89
2020/12/29 12:08:20;;;;;;;2.10;0.30;;;4.20;99.90;;;;;;6157507;23;20280;-90
2020/12/29 12:10:46;;;;;;;1.23;0.10;;;4.20;99.90;;;;;;6184619;23;20005;-91
2020/12/29 12:13:44;;;;;;;0.67;0.20;;;4.30;99.90;;;;;;6185460;23;20005;-90
2020/12/29 12:16:39;;;;;;;0.40;0.10;;;4.30;99.90;;;;;;6146110;23;20396;-91
2020/12/29 12:19:28;;;;;;;1.57;0.40;;;4.50;99.90;;;;;;6153821;23;20002;-90
2020/12/29 12:22:19;;;;;;;0.93;0.30;;;4.50;99.90;;;;;;6162035;23;20012;-93
2020/12/29 12:25:19;;;;;;;0.63;0.20;;;4.40;99.90;;;;;;6175031;23;20044;-91
2020/12/29 12:27:51;;;;;;;1.07;0.20;;;4.40;99.90;;;;;;6159531;23;20062;-90
2020/12/29 12:30:54;;;;;;;1.17;0.25;;;4.30;99.90;;;;;;6186366;23;20013;-91
2020/12/29 12:33:47;;;;;;;1.03;0.20;;;4.30;99.90;;;;;;6156999;23;20001;-89
2020/12/29 12:36:31;;;;;;;2.08;0.20;;;4.30;99.90;;;;;;6157088;23;20088;-91
2020/12/29 12:39:48;;;;;;;1.43;0.30;;;4.40;99.90;;;;;;6182284;23;20079;-91
2020/12/29 12:47:42;;;;;;;1.07;0.30;;;4.60;99.90;;;;;;6166138;23;20017;-92
2020/12/29 12:50:27;;;;;;;1.73;0.40;;;4.60;99.90;;;;;;6161077;23;20015;-92
2020/12/29 12:53:08;;;;;;;1.77;0.30;;;4.70;99.90;;;;;;6178622;23;20009;-92
2020/12/29 12:55:34;;;;;;;0.70;0.20;;;4.80;99.90;;;;;;6184908;23;20181;-92
2020/12/29 12:58:00;;;;;;;1.30;0.30;;;4.80;99.90;;;;;;6185331;23;20307;-87
2020/12/29 13:00:46;;;;;;;1.97;0.40;;;4.90;99.90;;;;;;6185766;23;20220;-92
2020/12/29 13:03:12;;;;;;;1.47;0.60;;;5.10;99.90;;;;;;6128676;23;20040;-90
2020/12/29 13:08:50;;;;;;;1.60;0.30;;;5.30;99.90;;;;;;6181450;23;20083;-95
2020/12/29 13:14:25;;;;;;;0.80;0.30;;;5.10;99.90;;;;;;6188326;23;20025;-91
2020/12/29 13:17:13;;;;;;;2.72;0.40;;;5.00;99.90;;;;;;6194007;23;20036;-92
2020/12/29 13:19:39;;;;;;;1.50;0.43;;;5.00;99.90;;;;;;6198871;23;20020;-93
2020/12/29 13:24:40;;;;;;;1.47;0.40;;;5.20;99.90;;;;;;6188438;23;20474;-92
2020/12/29 13:35:44;;;;;;;2.87;0.50;;;5.20;99.90;;;;;;6185191;23;20023;-95
2020/12/29 13:38:21;;;;;;;2.43;0.50;;;5.00;99.90;;;;;;6160646;23;20001;-95
2020/12/29 14:06:58;;;;;;;5.93;0.80;;;4.70;99.90;;;;;;6207697;23;20233;-93
2020/12/29 14:53:25;;;;;;;5.67;1.13;;;4.50;99.90;;;;;;6152068;23;20005;-92
2020/12/29 14:55:51;;;;;;;4.43;1.00;;;4.60;99.90;;;;;;6180375;23;19994;-93
2020/12/29 14:58:16;;;;;;;2.67;1.03;;;4.60;99.90;;;;;;6180038;23;20037;-93
2020/12/29 15:00:42;;;;;;;4.20;1.07;;;4.60;99.90;;;;;;6173292;23;20009;-88
2020/12/29 15:03:08;;;;;;;4.53;0.97;;;4.60;99.90;;;;;;6173344;23;19998;-91
2020/12/29 15:05:34;;;;;;;5.03;1.00;;;4.60;99.90;;;;;;6175718;23;20407;-91
2020/12/29 15:07:59;;;;;;;3.00;1.00;;;4.60;99.90;;;;;;6174409;23;20017;-92
2020/12/29 15:10:25;;;;;;;3.70;0.97;;;4.50;99.90;;;;;;6177159;23;20005;-92
2020/12/29 15:12:51;;;;;;;5.37;1.07;;;4.40;99.90;;;;;;6178589;23;20028;-92
2020/12/29 15:15:16;;;;;;;4.87;1.07;;;4.40;99.90;;;;;;6151968;23;20017;-92
2020/12/29 15:17:42;;;;;;;7.67;1.30;;;4.40;99.90;;;;;;6178131;23;19998;-91
2020/12/29 15:20:07;;;;;;;4.37;1.27;;;4.30;99.90;;;;;;6177890;23;20057;-90
2020/12/29 15:22:34;;;;;;;6.57;1.20;;;4.20;99.90;;;;;;6155101;23;20044;-91
2020/12/29 15:24:59;;;;;;;5.47;1.10;;;4.20;99.90;;;;;;6179902;23;20037;-91
2020/12/29 15:27:25;;;;;;;2.60;0.93;;;4.20;99.90;;;;;;6180664;23;20021;-91
2020/12/29 15:29:51;;;;;;;3.07;0.97;;;4.20;99.90;;;;;;6180397;23;20006;-91
2020/12/29 15:32:16;;;;;;;4.40;1.00;;;4.10;99.90;;;;;;6180595;23;19990;-92
2020/12/29 15:34:44;;;;;;;4.90;0.90;;;4.00;99.90;;;;;;6181309;23;20009;-91
2020/12/29 15:37:11;;;;;;;4.77;0.73;;;4.00;99.90;;;;;;6180060;23;20001;-91
2020/12/29 15:39:37;;;;;;;4.60;1.20;;;4.00;99.90;;;;;;6179296;23;20000;-91
2020/12/29 15:42:02;;;;;;;3.93;1.77;;;3.90;99.90;;;;;;6179574;23;20137;-91
2020/12/29 15:44:28;;;;;;;6.93;2.40;;;3.90;99.90;;;;;;6180003;23;19994;-92
2020/12/29 16:00:35;;;;;;;4.00;1.57;;;3.60;99.90;;;;;;6210860;23;20076;-92
2020/12/29 16:03:00;;;;;;;5.37;1.53;;;3.50;99.90;;;;;;6212241;23;19981;-92
2020/12/29 16:05:26;;;;;;;4.47;1.50;;;3.40;99.90;;;;;;6211324;23;19996;-91
2020/12/29 16:08:10;;;;;;;5.60;1.90;;;3.40;99.90;;;;;;6211017;23;19985;-92
2020/12/29 16:10:36;;;;;;;6.40;1.70;;;3.40;99.90;;;;;;6211662;23;19995;-92
2020/12/29 16:13:02;;;;;;;3.80;1.37;;;3.30;99.90;;;;;;6211110;23;19985;-93
2020/12/29 16:15:28;;;;;;;4.57;1.80;;;3.30;99.90;;;;;;6211115;23;19996;-91
2020/12/29 16:17:54;;;;;;;4.00;1.43;;;3.30;99.90;;;;;;6208873;23;20052;-90
2020/12/29 16:30:41;;;;;;;7.67;2.43;;;3.30;99.90;;;;;;6207417;23;20051;-90
2020/12/29 16:33:07;;;;;;;8.43;2.37;;;3.30;99.90;;;;;;6203330;23;20001;-89
2020/12/29 16:35:45;;;;;;;6.00;2.17;;;3.30;99.90;;;;;;6207009;23;20009;-90
2020/12/29 16:38:11;;;;;;;6.60;2.30;;;3.30;99.90;;;;;;6208858;23;20169;-91
2020/12/29 16:40:36;;;;;;;5.17;2.13;;;3.30;99.90;;;;;;6206666;23;20012;-90
2020/12/29 16:43:02;;;;;;;5.80;2.40;;;3.30;99.90;;;;;;6208434;23;20009;-90
2020/12/29 16:45:28;;;;;;;3.73;2.07;;;3.30;99.90;;;;;;6205655;23;20005;-91
2020/12/29 16:47:54;;;;;;;4.97;1.80;;;3.20;99.90;;;;;;6204133;23;19997;-91
2020/12/29 16:50:19;;;;;;;6.93;1.50;;;3.10;99.90;;;;;;6206497;23;20076;-92
2020/12/29 16:52:49;;;;;;;4.97;1.90;;;3.10;99.90;;;;;;6206197;23;20027;-92
2020/12/29 16:55:26;;;;;;;3.63;1.70;;;3.10;99.90;;;;;;6204884;23;20005;-90
2020/12/29 16:57:51;;;;;;;6.27;1.57;;;3.10;99.90;;;;;;6188586;23;20052;-86
2020/12/29 17:00:17;;;;;;;2.97;1.33;;;3.10;99.90;;;;;;6185957;23;20359;-87
2020/12/29 17:02:43;;;;;;;5.17;1.47;;;3.50;99.90;;;;;;6182309;23;20016;-89
2020/12/29 17:05:09;;;;;;;4.50;1.63;;;3.60;99.90;;;;;;6202672;23;19997;-91
2020/12/29 17:07:35;;;;;;;3.70;1.30;;;3.60;99.90;;;;;;6207813;23;19997;-92
2020/12/29 17:10:03;;;;;;;4.27;1.50;;;3.50;99.90;;;;;;6204225;23;20060;-90
2020/12/29 17:12:29;;;;;;;4.87;1.70;;;3.40;99.90;;;;;;6192947;23;20009;-91
2020/12/29 17:14:55;;;;;;;4.77;1.60;;;3.20;99.90;;;;;;6197044;23;20015;-91
2020/12/29 17:17:20;;;;;;;4.90;1.47;;;3.20;99.90;;;;;;6193899;23;20072;-92
2020/12/29 17:19:46;;;;;;;3.80;1.23;;;3.20;99.90;;;;;;6200485;23;20009;-91
2020/12/29 17:22:12;;;;;;;5.57;1.70;;;3.10;99.90;;;;;;6203564;23;20005;-93
2020/12/29 17:24:38;;;;;;;4.93;1.53;;;3.10;99.90;;;;;;6194316;23;20005;-92
2020/12/29 17:27:03;;;;;;;3.63;1.40;;;3.10;99.90;;;;;;6204157;23;20016;-91
2020/12/29 17:29:30;;;;;;;5.67;1.50;;;3.00;99.90;;;;;;6202813;23;20088;-91
2020/12/29 17:31:56;;;;;;;5.37;1.50;;;3.00;99.90;;;;;;6205511;23;20013;-91
2020/12/29 17:34:21;;;;;;;6.17;1.80;;;3.00;99.90;;;;;;6208609;23;20017;-93
2020/12/29 17:36:49;;;;;;;5.17;2.03;;;3.00;99.90;;;;;;6208308;23;20040;-91
2020/12/29 17:39:15;;;;;;;5.20;1.47;;;3.00;99.90;;;;;;6207824;23;19997;-90
2020/12/29 17:41:41;;;;;;;7.23;1.60;;;3.00;99.90;;;;;;6208092;23;19993;-91
2020/12/29 17:51:56;;;;;;;5.37;1.93;;;2.90;99.90;;;;;;6204826;23;20009;-95
2020/12/29 17:54:21;;;;;;;3.50;1.47;;;2.90;99.90;;;;;;6206257;23;20007;-93
2020/12/29 18:17:30;;;;;;;6.47;2.20;;;2.60;99.90;;;;;;6209835;23;20009;-91
2020/12/29 18:19:56;;;;;;;4.53;1.53;;;2.60;99.90;;;;;;6184357;23;20008;-94
2020/12/29 18:22:21;;;;;;;3.40;1.57;;;2.60;99.90;;;;;;6190959;23;20012;-91
2020/12/29 18:24:47;;;;;;;4.83;1.70;;;2.60;99.90;;;;;;6189523;23;20013;-93
2020/12/29 18:27:13;;;;;;;6.27;2.07;;;2.70;99.90;;;;;;6186418;23;20406;-91
2020/12/29 18:29:38;;;;;;;7.07;1.80;;;2.60;99.90;;;;;;6186724;23;20001;-91
2020/12/29 18:32:04;;;;;;;4.73;1.60;;;2.60;99.90;;;;;;6187982;23;20001;-90
2020/12/29 18:34:30;;;;;;;4.83;1.37;;;2.50;99.90;;;;;;6187982;23;20001;-92
2020/12/29 18:36:56;;;;;;;4.73;1.73;;;2.40;99.90;;;;;;6193916;23;20004;-91
2020/12/29 18:39:21;;;;;;;7.53;1.73;;;2.50;99.90;;;;;;6196591;23;20009;-90
2020/12/29 18:41:48;;;;;;;4.13;1.60;;;2.40;99.90;;;;;;6198669;23;20206;-91
2020/12/29 18:44:20;;;;;;;6.43;1.50;;;2.50;99.90;;;;;;6202403;23;20005;-91
2020/12/29 18:46:47;;;;;;;5.73;1.80;;;2.50;99.90;;;;;;6204482;23;20012;-90
2020/12/29 18:49:13;;;;;;;4.60;1.63;;;2.50;99.90;;;;;;6206399;23;19997;-91
2020/12/29 18:51:38;;;;;;;5.17;1.93;;;2.50;99.90;;;;;;6207469;23;19997;-92
2020/12/29 18:54:04;;;;;;;6.73;1.97;;;2.40;99.90;;;;;;6201880;23;19997;-91
2020/12/29 18:56:31;;;;;;;4.03;1.67;;;2.40;99.90;;;;;;6207752;23;20000;-90
2020/12/29 18:59:01;;;;;;;5.20;1.67;;;2.40;99.90;;;;;;6199230;23;20275;-90
2020/12/29 19:01:32;;;;;;;4.70;1.57;;;2.40;99.90;;;;;;6207971;23;19997;-90
2020/12/29 19:03:58;;;;;;;6.80;1.77;;;2.30;99.90;;;;;;6210002;23;20009;-90
2020/12/29 19:06:27;;;;;;;7.23;1.87;;;2.40;99.90;;;;;;6206915;23;20020;-90
2020/12/29 19:08:53;;;;;;;8.30;1.83;;;2.30;99.90;;;;;;6205248;23;20004;-90
2020/12/29 19:11:23;;;;;;;4.23;1.50;;;2.30;99.90;;;;;;6203719;23;20020;-90
2020/12/29 19:13:49;;;;;;;4.93;1.77;;;2.30;99.90;;;;;;6206961;23;20012;-92
2020/12/29 19:16:20;;;;;;;6.17;1.70;;;2.30;99.90;;;;;;6208252;23;20016;-92
2020/12/29 19:18:46;;;;;;;6.37;1.70;;;2.30;99.90;;;;;;6205284;23;20048;-91
2020/12/29 19:21:12;;;;;;;4.77;1.73;;;2.20;99.90;;;;;;6201514;23;20010;-90
2020/12/29 19:23:42;;;;;;;5.27;1.80;;;2.10;99.90;;;;;;6199169;23;20005;-90
2020/12/29 19:26:07;;;;;;;3.80;1.87;;;2.10;99.90;;;;;;6204581;23;20025;-91
2020/12/29 19:33:59;;;;;;;6.63;2.15;;;2.00;99.90;;;;;;6191744;23;20028;-92
2020/12/29 19:36:25;;;;;;;7.10;2.37;;;2.10;99.90;;;;;;6194484;23;20036;-93
2020/12/29 19:38:51;;;;;;;7.10;2.20;;;2.10;99.90;;;;;;6188071;23;20009;-93
2020/12/29 19:41:35;;;;;;;9.27;2.47;;;2.20;99.90;;;;;;6187705;23;20005;-94
2020/12/29 19:44:31;;;;;;;7.63;2.63;;;2.10;99.90;;;;;;6162932;23;20059;-93
2020/12/29 20:28:36;;;;;;;6.43;2.43;;;2.60;99.90;;;;;;6205423;23;20013;-93
2020/12/29 20:31:02;;;;;;;5.93;1.83;;;2.60;99.90;;;;;;6183542;23;20050;-93
